Newfane, NY

12:30 AM EDT on August 29, 2015 (GMT -0400)
BackBay Marina | | Change Station
CLOSE
Current Station
Personal Weather Station
Location: Olcott, NY
Elevation: 240 ft
Nearby Weather Stations

Elev 240 ft 43.34 °N, 78.72 °W | Updated 5 seconds ago

Partly Cloudy
Partly Cloudy
60.5 °F
Feels Like 60.5 °F
N
5.0
Wind Variable Wind from South
Gusts 7.0 mph

Today
High -- | Low -- °F
--% Chance of Precip.
Yesterday
High -- | Low -- °F
Precip. -- in
6:35 AM 7:55 PM
Waxing Gibbous, 99% visible
Pressure 30.16 in
Visibility 10.0 miles
Clouds Clear
Dew Point 56 °F
Humidity 87%
Rainfall 0.00 in
Snow Depth Not available.
UV 0.0 out of 12
Pollen 10.00 out of 12
Air Quality Not available.
Flu Activity Not available.
METAR KIAG 290353Z AUTO 00000KT 10SM CLR 15/13 A3016 RMK AO2 SLP213 T01500128
Pressure 30.16 in
Visibility 10.0 miles
Clouds Clear
Dew Point 56 °F
Humidity 87%
Rainfall 0.00 in
Snow Depth Not available.
UV 0.0 out of 12
Pollen 10.00 out of 12
Air Quality Not available.
Flu Activity Not available.
METAR KIAG 290353Z AUTO 00000KT 10SM CLR 15/13 A3016 RMK AO2 SLP213 T01500128

10-Day Weather Forecast

×

Almanac

Astronomy

Aug. 29, 2015 Rise Set
Actual Time
Civil Twilight
Nautical Twilight
Astronomical Twilight
Moon
Length of Visible Light
Length of Day
Tomorrow will be .
, % of the Moon is Illuminated

Today's Extremes

State Highs State Lows

Community

WunderPhotos

Upload Photos

1,850,614 photos uploaded!

WunderBlogs® & News

Nearby

Air Quality

  Air Quality AQ Index Pollutant
Not available.

Snow Depth

Station Depth Elevation

Earthquake Activity

City Distance Mag. Time & Date
Minimum magnitude displayed is 2.5.

Coastal Water Temperatures

Place Temperature

Stations

Nearby Weather Stations

Station Location Temp. Windchill Dew Point Humidity Wind Precip. Elev Updated Type